Terminal Aerodrome Forecast
Issued by NWS

Home | Current Version | Previous Version | Text Only | Print | Product List | Glossary On
Versions: 1 2 3 4 5 6 7 8 9 10 11 12
000
FTUS42 TJSJ 261124
TAFISX
TAF
TISX 261124Z 2612/2712 06010KT P6SM VCSH SCT025 SCT035
     FM261400 10012KT P6SM FEW026
     FM261700 11013G19KT P6SM VCSH SCT028
     FM262300 06006KT P6SM FEW025=

USA.gov is the U.S. government's official web portal to all federal, state and local government web resources and services.